地図

経路データ

SID SEASON NUMBER BASIN SUBBASIN NAME ISO_TIME NATURE LAT LON WMO_WIND WMO_PRES WMO_AGENCY TRACK_TYPE DIST2LAND LANDFALL IFLAG USA_AGENCY USA_ATCF_ID USA_LAT USA_LON USA_RECORD USA_STATUS USA_WIND USA_PRES USA_SSHS USA_R34_NE USA_R34_SE USA_R34_SW USA_R34_NW USA_R50_NE USA_R50_SE USA_R50_SW USA_R50_NW USA_R64_NE USA_R64_SE USA_R64_SW USA_R64_NW USA_POCI USA_ROCI USA_RMW USA_EYE TOKYO_LAT TOKYO_LON TOKYO_GRADE TOKYO_WIND TOKYO_PRES TOKYO_R50_DIR TOKYO_R50_LONG TOKYO_R50_SHORT TOKYO_R30_DIR TOKYO_R30_LONG TOKYO_R30_SHORT TOKYO_LAND CMA_LAT CMA_LON CMA_CAT CMA_WIND CMA_PRES HKO_LAT HKO_LON HKO_CAT HKO_WIND HKO_PRES NEWDELHI_LAT NEWDELHI_LON NEWDELHI_GRADE NEWDELHI_WIND NEWDELHI_PRES NEWDELHI_CI NEWDELHI_DP NEWDELHI_POCI REUNION_LAT REUNION_LON REUNION_TYPE REUNION_WIND REUNION_PRES REUNION_TNUM REUNION_CI REUNION_RMW REUNION_R34_NE REUNION_R34_SE REUNION_R34_SW REUNION_R34_NW REUNION_R50_NE REUNION_R50_SE REUNION_R50_SW REUNION_R50_NW REUNION_R64_NE REUNION_R64_SE REUNION_R64_SW REUNION_R64_NW BOM_LAT BOM_LON BOM_TYPE BOM_WIND BOM_PRES BOM_TNUM BOM_CI BOM_RMW BOM_R34_NE BOM_R34_SE BOM_R34_SW BOM_R34_NW BOM_R50_NE BOM_R50_SE BOM_R50_SW BOM_R50_NW BOM_R64_NE BOM_R64_SE BOM_R64_SW BOM_R64_NW BOM_ROCI BOM_POCI BOM_EYE BOM_POS_METHOD BOM_PRES_METHOD NADI_LAT NADI_LON NADI_CAT NADI_WIND NADI_PRES WELLINGTON_LAT WELLINGTON_LON WELLINGTON_WIND WELLINGTON_PRES DS824_LAT DS824_LON DS824_STAGE DS824_WIND DS824_PRES TD9636_LAT TD9636_LON TD9636_STAGE TD9636_WIND TD9636_PRES TD9635_LAT TD9635_LON TD9635_WIND TD9635_PRES TD9635_ROCI NEUMANN_LAT NEUMANN_LON NEUMANN_CLASS NEUMANN_WIND NEUMANN_PRES MLC_LAT MLC_LON MLC_CLASS MLC_WIND MLC_PRES USA_GUST BOM_GUST BOM_GUST_PER REUNION_GUST REUNION_GUST_PER USA_SEAHGT USA_SEARAD_NE USA_SEARAD_SE USA_SEARAD_SW USA_SEARAD_NW STORM_SPEED STORM_DIR
1959265N16241 1959 83 EP MM NOT_NAMED 1959-09-21 12:00:00 TS 16.0000 -118.600 75 hurdat_epa main 1185 1185 O________OO___ hurdat_epa EP101959 16.0000 -118.600 HU 75 1 16.0000 -118.600 TC 16.0000 -118.600 4 9 288
1959265N16241 1959 83 EP MM NOT_NAMED 1959-09-21 15:00:00 TS 16.1419 -119.054 main 1206 1197 P________PP___ EP101959 16.1452 -119.055 HU 75 1 16.1452 -119.055 TC 16.1289 -119.050 4 9 289
1959265N16241 1959 83 EP MM NOT_NAMED 1959-09-21 18:00:00 TS 16.2952 -119.498 75 hurdat_epa main 1214 1212 O________OP___ hurdat_epa EP101959 16.3000 -119.500 HU 75 1 16.3000 -119.500 TC 16.2759 -119.490 4 9 292
1959265N16241 1959 83 EP MM NOT_NAMED 1959-09-21 21:00:00 TS 16.4739 -119.920 main 1223 1223 P________PP___ EP101959 16.4775 -119.923 HU 75 1 16.4775 -119.923 TC 16.4599 -119.910 4 9 298
1959265N16241 1959 83 EP MM NOT_NAMED 1959-09-22 00:00:00 TS 16.7000 -120.300 75 hurdat_epa main 1235 1232 O________OO___ hurdat_epa EP101959 16.7000 -120.300 HU 75 1 16.7000 -120.300 TC 75 16.7000 -120.300 4 9 307
1959265N16241 1959 83 EP MM NOT_NAMED 1959-09-22 03:00:00 TS 16.9831 -120.628 main 1232 1231 P________PP___ EP101959 16.9774 -120.623 HU 75 1 16.9774 -120.623 TC 75 17.0060 -120.650 4 8 316
1959265N16241 1959 83 EP MM NOT_NAMED 1959-09-22 06:00:00 TS 17.3100 -120.911 75 hurdat_epa main 1231 1223 O________OP___ hurdat_epa EP101959 17.3000 -120.900 HU 75 1 17.3000 -120.900 TC 75 17.3498 -120.954 4 9 323
1959265N16241 1959 83 EP MM NOT_NAMED 1959-09-22 09:00:00 TS 17.6767 -121.185 main 1223 1216 P________PP___ EP101959 17.6725 -121.180 HU 75 1 17.6725 -121.180 TC 75 17.6936 -121.206 4 8 326
1959265N16241 1959 83 EP MM NOT_NAMED 1959-09-22 12:00:00 TS 18.0000 -121.400 75 hurdat_epa main 1217 1210 O________OO___ hurdat_epa EP101959 18.0000 -121.400 HU 75 1 18.0000 -121.400 TC 75 18.0000 -121.400 4 6 327
1959265N16241 1959 83 EP MM NOT_NAMED 1959-09-22 15:00:00 TS 18.1799 -121.532 main 1211 1211 P________PP___ EP101959 18.1724 -121.530 HU 75 1 18.1724 -121.530 TC 75 18.2097 -121.537 4 4 328
1959265N16241 1959 83 EP MM NOT_NAMED 1959-09-22 18:00:00 TS 18.3159 -121.604 75 hurdat_epa main 1212 1199 O________OP___ hurdat_epa EP101959 18.3000 -121.600 HU 75 1 18.3000 -121.600 TC 75 18.3797 -121.618 4 3 340
1959265N16241 1959 83 EP MM NOT_NAMED 1959-09-22 21:00:00 TS 18.5010 -121.659 main 1207 1193 P________PP___ EP101959 18.4925 -121.658 HU 75 1 18.4925 -121.658 TC 75 18.5348 -121.665 4 4 347
1959265N16241 1959 83 EP MM NOT_NAMED 1959-09-23 00:00:00 TS 18.7000 -121.700 75 hurdat_epa main 1193 1180 O________OO___ hurdat_epa EP101959 18.7000 -121.700 HU 75 1 18.7000 -121.700 TC 75 18.7000 -121.700 4 4 347
1959265N16241 1959 83 EP MM NOT_NAMED 1959-09-23 03:00:00 TS 18.8961 -121.753 main 1189 1176 P________PP___ EP101959 18.8925 -121.750 HU 75 1 18.8925 -121.750 TC 75 18.9106 -121.765 4 4 346
1959265N16241 1959 83 EP MM NOT_NAMED 1959-09-23 06:00:00 TS 19.1070 -121.805 75 hurdat_epa main 1176 1161 O________OP___ hurdat_epa EP101959 19.1000 -121.800 HU 75 1 19.1000 -121.800 TC 75 19.1350 -121.822 4 5 348
1959265N16241 1959 83 EP MM NOT_NAMED 1959-09-23 09:00:00 TS 19.3534 -121.860 main 1159 1142 P________PP___ EP101959 19.3500 -121.857 HU 75 1 19.3500 -121.857 TC 75 19.3669 -121.868 4 5 350
1959265N16241 1959 83 EP MM NOT_NAMED 1959-09-23 12:00:00 TS 19.6000 -121.900 75 hurdat_epa main 1142 1125 O________OO___ hurdat_epa EP101959 19.6000 -121.900 HU 75 1 19.6000 -121.900 TC 75 19.6000 -121.900 4 5 355
1959265N16241 1959 83 EP MM NOT_NAMED 1959-09-23 15:00:00 TS 19.8026 -121.908 main 1125 1108 P________PP___ EP101959 19.8000 -121.908 HU 75 1 19.8000 -121.908 TC 75 19.8128 -121.910 4 4 0
1959265N16241 1959 83 EP MM NOT_NAMED 1959-09-23 18:00:00 TS 20.0055 -121.902 75 hurdat_epa main 1108 1091 O________OP___ hurdat_epa EP101959 20.0000 -121.900 HU 75 1 20.0000 -121.900 TC 75 20.0275 -121.908 4 4 4
1959265N16241 1959 83 EP MM NOT_NAMED 1959-09-23 21:00:00 TS 20.2387 -121.900 main 1091 1065 P________PP___ EP101959 20.2350 -121.900 HU 75 1 20.2350 -121.900 TC 75 20.2534 -121.901 4 5 0
1959265N16241 1959 83 EP MM NOT_NAMED 1959-09-24 00:00:00 TS 20.5000 -121.900 75 hurdat_epa main 1065 1040 O________OO___ hurdat_epa EP101959 20.5000 -121.900 HU 75 1 20.5000 -121.900 TC 75 20.5000 -121.900 4 6 1
1959265N16241 1959 83 EP MM NOT_NAMED 1959-09-24 03:00:00 TS 20.7953 -121.889 main 1040 1015 P________PP___ EP101959 20.7925 -121.893 HU 75 1 20.7925 -121.893 TC 75 20.8067 -121.873 4 6 3
1959265N16241 1959 83 EP MM NOT_NAMED 1959-09-24 06:00:00 TS 21.1059 -121.892 75 hurdat_epa main 1015 990 O________OP___ hurdat_epa EP101959 21.1000 -121.900 HU 75 1 21.1000 -121.900 TC 75 21.1296 -121.861 4 6 359
1959265N16241 1959 83 EP MM NOT_NAMED 1959-09-24 09:00:00 TS 21.4195 -121.915 main 990 973 P________PP___ EP101959 21.4150 -121.920 HU 75 1 21.4150 -121.920 TC 75 21.4378 -121.892 4 6 351
1959265N16241 1959 83 EP MM NOT_NAMED 1959-09-24 12:00:00 TS 21.7000 -122.000 75 hurdat_epa main 973 965 O________OO___ hurdat_epa EP101959 21.7000 -122.000 HU 75 1 21.7000 -122.000 TC 75 21.7000 -122.000 4 6 336
1959265N16241 1959 83 EP MM NOT_NAMED 1959-09-24 15:00:00 TS 21.9339 -122.155 main 972 965 P________PP___ EP101959 21.9374 -122.147 HU 72 1 21.9374 -122.147 TC 72 21.9197 -122.188 4 6 316
1959265N16241 1959 83 EP MM NOT_NAMED 1959-09-24 18:00:00 TS 22.0969 -122.411 70 967 hurdat_epa main 973 973 O________OP___ hurdat_epa EP101959 22.1000 -122.400 HU 70 967 1 22.1000 -122.400 TC 70 967 22.0845 -122.456 4 6 295
1959265N16241 1959 83 EP MM NOT_NAMED 1959-09-24 21:00:00 TS 22.1924 -122.763 main 997 997 P________PP___ EP101959 22.1950 -122.755 HU 72 1 22.1950 -122.755 TC 72 22.1820 -122.797 4 7 278
1959265N16241 1959 83 EP MM NOT_NAMED 1959-09-25 00:00:00 TS 22.2000 -123.200 75 hurdat_epa main 1029 1029 O________OO___ hurdat_epa EP101959 22.2000 -123.200 HU 75 1 22.2000 -123.200 TC 75 22.2000 -123.200 4 8 267
1959265N16241 1959 83 EP MM NOT_NAMED 1959-09-25 03:00:00 TS 22.1407 -123.676 main 1076 1076 P________PP___ EP101959 22.1375 -123.685 HU 75 1 22.1375 -123.685 TC 75 22.1536 -123.639 4 9 258
1959265N16241 1959 83 EP MM NOT_NAMED 1959-09-25 06:00:00 TS 22.0055 -124.187 75 hurdat_epa main 1124 1124 O________OP___ hurdat_epa EP101959 22.0000 -124.200 HU 75 1 22.0000 -124.200 TC 75 22.0276 -124.133 4 10 252
1959265N16241 1959 83 EP MM NOT_NAMED 1959-09-25 09:00:00 TS 21.8314 -124.686 main 1179 1179 P________PP___ EP101959 21.8298 -124.692 HU 75 1 21.8298 -124.692 TC 75 21.8378 -124.660 4 10 247
1959265N16241 1959 83 EP MM NOT_NAMED 1959-09-25 12:00:00 TS 21.6000 -125.200 75 hurdat_epa main 1234 1234 O________OO___ hurdat_epa EP101959 21.6000 -125.200 HU 75 1 21.6000 -125.200 TC 75 21.6000 -125.200 4 11 243
1959265N16241 1959 83 EP MM NOT_NAMED 1959-09-25 15:00:00 TS 21.3177 -125.747 main 1295 1295 P________PP___ EP101959 21.3150 -125.750 HU 75 1 21.3150 -125.750 TC 75 21.3289 -125.734 4 12 240
1959265N16241 1959 83 EP MM NOT_NAMED 1959-09-25 18:00:00 TS 21.0067 -126.292 75 hurdat_epa main 1366 1366 O________OP___ hurdat_epa EP101959 21.0000 -126.300 HU 75 1 21.0000 -126.300 TC 75 21.0334 -126.261 4 12 238
1959265N16241 1959 83 EP MM NOT_NAMED 1959-09-25 21:00:00 TS 20.7004 -126.807 main 1427 1427 P________PP___ EP101959 20.6952 -126.813 HU 75 1 20.6952 -126.813 TC 75 20.7212 -126.783 4 11 237
1959265N16241 1959 83 EP MM NOT_NAMED 1959-09-26 00:00:00 TS 20.4000 -127.300 75 hurdat_epa main 1489 O________OO___ hurdat_epa EP101959 20.4000 -127.300 HU 75 1 20.4000 -127.300 TC 75 20.4000 -127.300 4 11 237

IBTrACS Databaseについて

本データベースは、米国NOAAが公開する1842年以降の世界の熱帯低気圧のベストトラックデータアーカイブInternational Best Track Archive for Climate Stewardship (IBTrACS)を、ウェブで閲覧しやすい形式に変換したものです。

最終更新日:2021-11-26